Time;durP1;ratioP1;P1;durP2;ratioP2;P2;SDS_P1;SDS_P2;PMS_P1;PMS_P2;Temp;Humidity;BMP_temperature;BMP_pressure;BME280_temperature;BME280_humidity;BME280_pressure;Samples;Min_cycle;Max_cycle;Signal;HPM_P1;HPM_P2
2022/11/27 00:02:05;;;;;;;10.88;6.07;;;;;;;-3.33;75.24;101197.66;5008318;28;20046;-49
2022/11/27 00:04:34;;;;;;;12.38;6.20;;;;;;;-3.40;75.66;101188.03;5009674;28;20468;-52
2022/11/27 00:07:02;;;;;;;13.77;5.88;;;;;;;-3.37;75.30;101198.34;5013727;28;20037;-49
2022/11/27 00:09:28;;;;;;;12.15;6.38;;;;;;;-3.37;75.94;101205.97;4990608;28;20118;-52
2022/11/27 00:11:54;;;;;;;13.55;6.18;;;;;;;-3.37;75.27;101208.50;4993361;28;20073;-51
2022/11/27 00:14:22;;;;;;;12.90;5.93;;;;;;;-3.52;75.64;101175.63;5008545;28;20085;-48
2022/11/27 00:16:48;;;;;;;10.82;5.43;;;;;;;-3.35;75.42;101195.09;4990864;28;20042;-48
2022/11/27 00:19:14;;;;;;;12.70;6.07;;;;;;;-3.33;75.36;101193.47;5014408;28;20098;-48
2022/11/27 00:21:42;;;;;;;12.07;5.53;;;;;;;-3.51;75.75;101167.22;5012728;28;20545;-52
2022/11/27 00:24:09;;;;;;;10.45;5.35;;;;;;;-3.32;75.56;101200.28;5002813;28;20080;-51
2022/11/27 00:26:35;;;;;;;11.98;5.63;;;;;;;-3.26;75.40;101208.22;5013414;28;20038;-52
2022/11/27 00:29:01;;;;;;;13.73;6.32;;;;;;;-3.23;75.26;101204.91;5008476;28;20037;-51
2022/11/27 00:31:31;;;;;;;12.27;6.40;;;;;;;-3.24;75.55;101206.59;4998374;28;20045;-46
2022/11/27 00:34:00;;;;;;;16.05;5.85;;;;;;;-3.29;75.42;101205.50;4977507;28;20045;-51
2022/11/27 00:36:28;;;;;;;10.65;6.00;;;;;;;-3.28;75.63;101207.25;5007883;28;20041;-53
2022/11/27 00:38:54;;;;;;;12.63;5.28;;;;;;;-3.33;75.71;101207.84;5000306;28;20188;-50
2022/11/27 00:41:24;;;;;;;10.95;5.38;;;;;;;-3.50;76.02;101184.19;5007901;28;20505;-50
2022/11/27 00:43:51;;;;;;;10.70;6.00;;;;;;;-3.32;75.71;101202.84;5006236;28;20050;-49
2022/11/27 00:46:19;;;;;;;11.77;5.05;;;;;;;-3.34;76.16;101204.44;4984033;28;20041;-52
2022/11/27 00:48:46;;;;;;;11.27;5.95;;;;;;;-3.53;75.75;101176.44;4993617;28;20065;-48
2022/11/27 00:51:14;;;;;;;12.75;5.63;;;;;;;-3.34;75.77;101204.44;5008187;28;20045;-54
2022/11/27 00:53:43;;;;;;;13.27;6.30;;;;;;;-3.36;75.67;101198.41;4983111;28;20058;-52
2022/11/27 00:56:10;;;;;;;11.60;6.03;;;;;;;-3.34;76.23;101212.06;4999757;28;20157;-54
2022/11/27 00:58:35;;;;;;;12.95;6.05;;;;;;;-3.33;76.02;101208.72;4981159;28;20050;-50
2022/11/27 01:01:04;;;;;;;11.57;5.60;;;;;;;-3.32;75.78;101197.75;5001269;28;20085;-53
2022/11/27 01:03:30;;;;;;;13.18;6.40;;;;;;;-3.28;76.01;101201.28;5009346;28;20041;-50
2022/11/27 01:05:56;;;;;;;11.70;5.53;;;;;;;-3.28;75.96;101209.78;5008320;28;20104;-51
2022/11/27 01:08:22;;;;;;;9.77;5.40;;;;;;;-3.25;75.96;101201.44;5005637;28;20041;-52
2022/11/27 01:10:53;;;;;;;12.00;5.13;;;;;;;-3.32;76.07;101197.75;5006812;28;20535;-49
2022/11/27 01:13:22;;;;;;;12.98;5.28;;;;;;;-3.30;75.84;101205.47;5006979;28;20045;-51
2022/11/27 01:15:59;;;;;;;11.80;5.60;;;;;;;-3.30;76.35;101206.34;4981330;28;20046;-48
2022/11/27 01:18:24;;;;;;;10.38;4.35;;;;;;;-3.31;75.95;101203.72;4975145;28;20533;-51
2022/11/27 01:20:54;;;;;;;12.48;6.20;;;;;;;-3.32;76.22;101205.38;4999065;28;20042;-51
2022/11/27 01:23:22;;;;;;;12.52;5.20;;;;;;;-3.31;76.54;101201.16;5006274;28;20064;-49
2022/11/27 01:25:47;;;;;;;9.82;5.30;;;;;;;-3.50;76.62;101172.34;5005065;28;20099;-48
2022/11/27 01:28:14;;;;;;;13.77;5.95;;;;;;;-3.29;76.73;101202.97;4987957;28;20050;-51
2022/11/27 01:30:40;;;;;;;10.02;5.07;;;;;;;-3.28;76.43;101196.22;4987134;28;20042;-48
2022/11/27 01:33:06;;;;;;;14.63;5.93;;;;;;;-3.23;76.79;101194.75;4991411;28;20041;-52
2022/11/27 01:35:32;;;;;;;10.57;4.82;;;;;;;-3.26;76.61;101192.94;5007552;28;20041;-53
2022/11/27 01:37:58;;;;;;;14.05;5.93;;;;;;;-3.28;76.74;101188.59;4990096;28;20058;-51
2022/11/27 01:40:24;;;;;;;15.65;6.10;;;;;;;-3.23;76.96;101194.75;5006612;28;20077;-51
2022/11/27 01:42:50;;;;;;;14.98;6.28;;;;;;;-3.20;77.07;101198.31;5002366;28;20133;-53
2022/11/27 01:45:19;;;;;;;13.65;6.32;;;;;;;-3.23;76.57;101195.63;5004395;28;20440;-49
2022/11/27 01:47:52;;;;;;;14.85;5.90;;;;;;;-3.22;76.76;101199.03;5006107;28;20038;-51
2022/11/27 01:50:25;;;;;;;12.85;5.88;;;;;;;-3.21;76.71;101204.19;4991775;28;20050;-49
2022/11/27 01:52:55;;;;;;;11.93;5.90;;;;;;;-3.34;77.26;101181.53;5005005;28;20042;-49
2022/11/27 01:55:31;;;;;;;12.15;5.45;;;;;;;-3.16;76.80;101201.84;4986988;28;20053;-50
2022/11/27 01:58:00;;;;;;;11.50;5.60;;;;;;;-3.15;77.22;101204.47;4991489;28;20050;-48
2022/11/27 02:00:26;;;;;;;12.63;5.47;;;;;;;-3.32;77.23;101166.38;4992745;28;20046;-50
2022/11/27 02:02:54;;;;;;;13.65;5.78;;;;;;;-3.10;77.21;101202.13;4990294;28;20046;-50
2022/11/27 02:05:23;;;;;;;13.55;5.88;;;;;;;-3.08;77.06;101200.50;5012855;28;20129;-51
2022/11/27 02:07:51;;;;;;;12.38;5.25;;;;;;;-3.18;77.11;101185.66;4994358;28;20048;-53
2022/11/27 02:10:17;;;;;;;9.50;4.95;;;;;;;-3.08;77.18;101203.94;5012008;28;20038;-53
2022/11/27 02:12:54;;;;;;;11.95;5.45;;;;;;;-3.10;77.15;101203.00;5011405;28;20064;-49
2022/11/27 02:15:39;;;;;;;11.35;5.40;;;;;;;-3.12;77.06;101201.19;5015390;28;20427;-50
2022/11/27 02:18:26;;;;;;;10.23;4.75;;;;;;;-3.34;76.90;101165.41;5009201;28;20053;-50
2022/11/27 02:21:20;;;;;;;10.07;5.00;;;;;;;-3.16;77.26;101199.31;5007386;28;20042;-49
2022/11/27 02:24:44;;;;;;;11.10;5.28;;;;;;;-3.20;77.41;101194.91;4996787;28;20576;-53
2022/11/27 02:27:31;;;;;;;10.65;4.32;;;;;;;-3.20;77.12;101205.94;4931396;29;20083;-53
2022/11/27 02:30:00;;;;;;;12.23;4.65;;;;;;;-3.35;77.67;101184.91;4972582;28;20533;-55
2022/11/27 02:32:38;;;;;;;11.43;4.70;;;;;;;-3.18;77.32;101213.63;4969949;28;20270;-52
2022/11/27 02:35:09;;;;;;;10.05;5.00;;;;;;;-3.20;77.46;101211.03;4950012;28;20049;-49
2022/11/27 02:37:58;;;;;;;9.75;4.78;;;;;;;-3.20;77.69;101211.03;4970669;28;20145;-53
2022/11/27 02:40:33;;;;;;;13.90;5.20;;;;;;;-3.21;78.09;101218.59;4945499;28;20217;-53
2022/11/27 02:43:09;;;;;;;10.95;4.78;;;;;;;-3.19;77.98;101212.75;4977642;28;20065;-53
2022/11/27 02:45:41;;;;;;;9.48;5.15;;;;;;;-3.14;78.10;101207.91;4954678;28;20054;-50
2022/11/27 02:48:08;;;;;;;13.88;4.97;;;;;;;-3.28;78.42;101180.94;4970324;28;20054;-48
2022/11/27 02:50:36;;;;;;;10.77;4.65;;;;;;;-3.07;78.04;101220.06;4986871;28;20169;-51
2022/11/27 02:53:05;;;;;;;9.07;4.40;;;;;;;-3.07;78.05;101213.31;4980506;28;20063;-50
2022/11/27 02:55:32;;;;;;;12.98;4.82;;;;;;;-3.35;78.07;101177.28;4969540;28;20665;-52
2022/11/27 02:57:59;;;;;;;10.32;4.68;;;;;;;-3.04;77.70;101223.63;4972613;28;20058;-50
2022/11/27 03:00:25;;;;;;;8.82;3.85;;;;;;;-3.00;77.86;101228.06;4975196;28;20109;-51
2022/11/27 03:02:56;;;;;;;10.90;4.40;;;;;;;-2.99;77.70;101221.28;4980555;28;20466;-47
2022/11/27 03:05:22;;;;;;;10.07;4.72;;;;;;;-2.98;77.44;101228.09;5004900;28;20065;-47
2022/11/27 03:08:08;;;;;;;9.48;4.60;;;;;;;-2.93;77.57;101224.09;4976850;28;20104;-48
2022/11/27 03:10:50;;;;;;;11.15;5.18;;;;;;;-2.90;76.98;101234.41;4988734;28;20137;-53
2022/11/27 03:13:16;;;;;;;7.70;4.43;;;;;;;-2.91;77.33;101230.13;4978871;28;20045;-49
2022/11/27 03:16:14;;;;;;;9.45;4.68;;;;;;;-2.86;77.38;101231.19;5001165;28;20401;-49
2022/11/27 03:18:55;;;;;;;10.52;4.88;;;;;;;-2.84;76.66;101227.06;4981270;28;20136;-50
2022/11/27 03:21:29;;;;;;;7.78;4.18;;;;;;;-2.84;76.70;101224.50;4989160;28;20042;-50
2022/11/27 03:23:56;;;;;;;9.40;4.30;;;;;;;-2.82;76.53;101222.00;5003188;28;20140;-48
2022/11/27 03:26:22;;;;;;;7.93;3.63;;;;;;;-3.05;76.37;101203.22;4993072;28;20042;-52
2022/11/27 03:28:50;;;;;;;8.70;4.03;;;;;;;-3.19;76.44;101177.13;5009250;28;20489;-52
2022/11/27 03:31:16;;;;;;;8.48;4.60;;;;;;;-2.88;76.53;101230.28;5012921;28;20090;-52
2022/11/27 03:33:41;;;;;;;10.77;4.30;;;;;;;-3.08;76.18;101196.28;4984690;28;20124;-48
2022/11/27 03:36:16;;;;;;;7.07;3.90;;;;;;;-2.90;76.23;101231.88;5008060;28;20050;-47
2022/11/27 03:38:42;;;;;;;10.50;4.90;;;;;;;-2.90;76.07;101220.81;5007692;28;20150;-50
2022/11/27 03:41:08;;;;;;;9.70;4.13;;;;;;;-2.84;76.05;101216.00;5007947;28;20188;-50
2022/11/27 03:43:42;;;;;;;8.55;4.57;;;;;;;-3.06;76.12;101181.97;5002163;28;20124;-50
2022/11/27 03:46:45;;;;;;;6.20;3.83;;;;;;;-2.86;76.10;101217.59;4992825;28;20050;-52
2022/11/27 03:49:28;;;;;;;8.85;4.40;;;;;;;-2.85;75.99;101222.75;5000835;28;20056;-54
2022/11/27 03:52:14;;;;;;;8.30;4.28;;;;;;;-2.85;76.16;101221.88;5008844;28;20060;-54
2022/11/27 03:54:58;;;;;;;7.82;3.97;;;;;;;-2.87;75.94;101216.72;5006620;28;20053;-51
2022/11/27 03:57:40;;;;;;;9.55;4.22;;;;;;;-2.87;75.85;101211.63;5005483;28;20069;-50
2022/11/27 04:00:08;;;;;;;8.52;4.22;;;;;;;-2.80;75.67;101217.88;4972873;28;20518;-50
2022/11/27 04:02:45;;;;;;;8.68;3.60;;;;;;;-2.77;76.20;101218.88;4969471;28;20565;-51
2022/11/27 04:05:14;;;;;;;9.00;4.13;;;;;;;-2.74;75.88;101213.94;5010169;28;20046;-49
2022/11/27 04:07:40;;;;;;;8.43;3.40;;;;;;;-2.97;75.91;101181.50;5008752;28;20034;-51
2022/11/27 04:10:07;;;;;;;9.27;4.30;;;;;;;-2.74;75.85;101226.66;5008646;28;20060;-46
2022/11/27 04:12:32;;;;;;;7.43;4.00;;;;;;;-2.85;76.08;101196.44;5009227;28;20041;-50
2022/11/27 04:14:58;;;;;;;8.45;3.97;;;;;;;-2.78;76.08;101199.34;5008458;28;20446;-50
2022/11/27 04:17:26;;;;;;;8.18;4.38;;;;;;;-2.68;75.83;101215.88;5008193;28;20038;-48
2022/11/27 04:19:51;;;;;;;7.55;3.70;;;;;;;-2.69;75.75;101221.75;5001441;28;20069;-52
2022/11/27 04:22:18;;;;;;;9.43;4.13;;;;;;;-2.71;75.70;101220.81;4993940;28;20073;-51
2022/11/27 04:24:44;;;;;;;9.45;3.65;;;;;;;-2.65;76.02;101233.81;5003951;28;20107;-52
2022/11/27 04:27:13;;;;;;;8.45;3.88;;;;;;;-2.63;75.72;101228.00;5006938;28;20037;-51
2022/11/27 04:29:40;;;;;;;7.55;4.00;;;;;;;-2.63;75.65;101228.00;5009255;28;20124;-53
2022/11/27 04:32:06;;;;;;;9.18;3.90;;;;;;;-2.65;75.90;101229.59;4978765;28;20042;-54
2022/11/27 04:34:34;;;;;;;7.15;3.70;;;;;;;-2.60;75.85;101220.47;5004018;28;20096;-53
2022/11/27 04:37:00;;;;;;;8.70;3.33;;;;;;;-2.56;76.09;101224.88;5006465;28;20053;-52
2022/11/27 04:39:26;;;;;;;9.35;3.67;;;;;;;-2.56;75.76;101224.88;5007374;28;20509;-51
2022/11/27 04:41:52;;;;;;;6.82;3.53;;;;;;;-2.59;75.67;101227.31;5008013;28;20041;-51
2022/11/27 04:44:18;;;;;;;5.53;3.55;;;;;;;-2.59;75.84;101222.22;5002509;28;20046;-51
2022/11/27 04:46:44;;;;;;;10.20;4.10;;;;;;;-2.72;75.78;101201.28;5004718;28;20518;-50
2022/11/27 04:49:10;;;;;;;7.18;3.72;;;;;;;-2.54;75.76;101230.06;4997562;28;20423;-55
2022/11/27 04:51:36;;;;;;;7.43;3.90;;;;;;;-2.54;75.77;101232.59;5006700;28;20076;-49
2022/11/27 04:54:02;;;;;;;6.15;3.40;;;;;;;-2.50;75.84;101237.00;5008210;28;20620;-51
2022/11/27 04:56:28;;;;;;;8.02;4.07;;;;;;;-2.49;75.72;101226.03;4986597;28;20034;-50
2022/11/27 04:58:53;;;;;;;7.78;3.80;;;;;;;-2.49;75.77;101226.03;5005930;28;20468;-50
2022/11/27 05:01:19;;;;;;;7.82;4.05;;;;;;;-2.65;75.80;101193.94;5006986;28;20702;-51
2022/11/27 05:03:46;;;;;;;6.90;3.78;;;;;;;-2.46;75.85;101222.75;5007691;28;20124;-50
2022/11/27 05:06:13;;;;;;;8.27;3.72;;;;;;;-2.41;75.35;101224.69;4987951;28;20474;-50
2022/11/27 05:08:44;;;;;;;6.22;3.53;;;;;;;-2.40;75.72;101231.50;4995778;28;20034;-50
2022/11/27 05:11:13;;;;;;;7.88;3.50;;;;;;;-2.54;76.07;101199.50;4991521;28;20042;-52
2022/11/27 05:13:39;;;;;;;10.68;3.80;;;;;;;-2.40;75.72;101233.16;4996383;28;20528;-53
2022/11/27 05:16:05;;;;;;;6.68;3.55;;;;;;;-2.38;75.96;101229.03;5003853;28;20046;-55
2022/11/27 05:18:32;;;;;;;8.70;3.97;;;;;;;-2.34;75.93;101228.34;4993110;28;20571;-54
2022/11/27 05:21:03;;;;;;;6.82;3.25;;;;;;;-2.31;75.84;101236.13;4997957;28;20064;-49
2022/11/27 05:23:29;;;;;;;6.90;3.58;;;;;;;-2.27;75.71;101236.31;4999643;28;20045;-49
2022/11/27 05:25:55;;;;;;;6.97;3.40;;;;;;;-2.26;75.88;101240.63;5009917;28;20128;-49
2022/11/27 05:28:21;;;;;;;7.25;3.50;;;;;;;-2.23;75.86;101242.41;5006074;28;20504;-50
2022/11/27 05:30:48;;;;;;;8.23;4.07;;;;;;;-2.26;75.99;101240.63;5007128;28;20421;-50
2022/11/27 05:33:15;;;;;;;7.10;3.65;;;;;;;-2.29;76.24;101243.00;5009188;28;20042;-52
2022/11/27 05:35:41;;;;;;;5.15;2.85;;;;;;;-2.27;76.35;101246.50;5002118;28;20045;-50
2022/11/27 05:38:08;;;;;;;7.72;3.90;;;;;;;-2.26;76.36;101245.72;4994807;28;20042;-53
2022/11/27 05:40:34;;;;;;;7.80;4.22;;;;;;;-2.47;76.53;101198.09;5009327;28;20056;-49
2022/11/27 05:43:00;;;;;;;8.90;4.43;;;;;;;-2.19;76.53;101250.22;5008938;28;20042;-51
2022/11/27 05:45:26;;;;;;;9.93;4.30;;;;;;;-2.17;77.11;101252.84;5007958;28;20057;-51
2022/11/27 05:47:52;;;;;;;7.82;3.85;;;;;;;-2.26;77.10;101250.81;5011844;28;20060;-54
2022/11/27 05:50:19;;;;;;;7.32;3.47;;;;;;;-2.28;77.54;101254.06;5003704;28;20046;-51
2022/11/27 05:52:45;;;;;;;9.15;4.18;;;;;;;-2.24;77.67;101255.94;5003515;28;20050;-52
2022/11/27 05:55:12;;;;;;;8.52;4.00;;;;;;;-2.26;78.19;101258.44;5012252;28;20077;-54
2022/11/27 05:57:38;;;;;;;9.90;4.53;;;;;;;-2.34;78.38;101234.31;5004995;28;20038;-49
2022/11/27 06:00:05;;;;;;;9.93;4.05;;;;;;;-2.37;78.24;101215.50;5008799;28;20046;-50
2022/11/27 06:02:32;;;;;;;10.95;4.53;;;;;;;-2.14;78.90;101250.41;5006570;28;20045;-48
2022/11/27 06:04:58;;;;;;;9.43;4.25;;;;;;;-2.16;78.90;101246.97;5010746;28;20360;-51
2022/11/27 06:07:23;;;;;;;7.15;3.55;;;;;;;-2.21;79.22;101251.88;4999566;28;20054;-55
2022/11/27 06:09:49;;;;;;;10.40;4.13;;;;;;;-2.27;78.87;101241.41;5006997;28;20613;-51
2022/11/27 06:12:15;;;;;;;9.95;3.58;;;;;;;-2.16;79.20;101260.56;5010783;28;20608;-53
2022/11/27 06:14:41;;;;;;;8.65;3.53;;;;;;;-2.16;79.69;101258.03;5002920;28;20037;-52
2022/11/27 06:17:07;;;;;;;6.68;3.72;;;;;;;-2.16;79.44;101260.56;5010080;28;20041;-50
2022/11/27 06:19:32;;;;;;;9.25;4.40;;;;;;;-2.19;79.74;101252.78;5013586;28;20045;-50
2022/11/27 06:22:00;;;;;;;9.88;4.45;;;;;;;-2.37;79.55;101221.47;5012533;28;20080;-52
2022/11/27 06:24:26;;;;;;;8.77;4.30;;;;;;;-2.10;79.66;101251.44;5009338;28;20041;-53
2022/11/27 06:26:52;;;;;;;8.57;3.90;;;;;;;-2.10;79.86;101253.97;5010425;28;20038;-51
2022/11/27 06:29:18;;;;;;;8.85;4.15;;;;;;;-2.05;79.89;101263.56;5017906;28;20053;-51
2022/11/27 06:31:44;;;;;;;9.45;4.47;;;;;;;-2.03;80.12;101266.16;5014193;28;20045;-48
2022/11/27 06:34:11;;;;;;;8.32;4.15;;;;;;;-2.05;79.84;101255.91;5010468;28;20472;-50
2022/11/27 06:36:40;;;;;;;9.73;3.85;;;;;;;-2.01;79.82;101260.31;5013971;28;20540;-48
2022/11/27 06:39:07;;;;;;;8.82;3.88;;;;;;;-1.98;79.87;101257.88;5009566;28;20049;-50
2022/11/27 06:41:33;;;;;;;9.18;4.97;;;;;;;-1.91;79.57;101257.34;5009824;28;20144;-49
2022/11/27 06:44:00;;;;;;;8.88;4.13;;;;;;;-1.83;79.46;101260.19;5011171;28;20037;-53
2022/11/27 06:46:26;;;;;;;9.40;3.85;;;;;;;-1.76;79.21;101252.88;5005777;28;20511;-54
2022/11/27 06:48:53;;;;;;;14.15;4.60;;;;;;;-1.84;78.89;101238.97;5008717;28;20037;-53
2022/11/27 06:51:21;;;;;;;7.78;3.85;;;;;;;-1.64;78.83;101260.13;5011505;28;20056;-50
2022/11/27 06:53:48;;;;;;;8.75;4.82;;;;;;;-1.56;78.87;101261.28;5014481;28;20072;-50
2022/11/27 06:56:18;;;;;;;9.20;5.00;;;;;;;-1.48;78.65;101266.72;5009640;28;20054;-51
2022/11/27 06:58:44;;;;;;;9.98;4.32;;;;;;;-1.57;78.59;101246.81;5017292;28;20099;-51
2022/11/27 07:01:15;;;;;;;10.05;4.80;;;;;;;-1.42;78.53;101269.50;5013140;28;20144;-52
2022/11/27 07:03:41;;;;;;;8.98;4.43;;;;;;;-1.42;78.42;101272.94;5015498;28;20530;-52
2022/11/27 07:06:09;;;;;;;9.82;4.45;;;;;;;-1.42;78.30;101264.41;5007124;28;20057;-49
2022/11/27 07:08:35;;;;;;;9.68;3.88;;;;;;;-1.59;78.30;101240.78;5014643;28;20588;-50
2022/11/27 07:11:03;;;;;;;7.95;3.97;;;;;;;-1.36;78.30;101280.81;5015659;28;20048;-53
2022/11/27 07:13:29;;;;;;;9.30;4.32;;;;;;;-1.44;78.21;101254.13;5008962;28;20038;-48
2022/11/27 07:16:00;;;;;;;9.15;4.35;;;;;;;-1.26;78.25;101274.41;4998332;28;20042;-48
2022/11/27 07:18:26;;;;;;;9.35;4.38;;;;;;;-1.31;78.18;101255.50;5009530;28;20046;-48
2022/11/27 07:20:52;;;;;;;8.15;4.22;;;;;;;-1.10;77.84;101283.50;4991361;28;20049;-51
2022/11/27 07:23:18;;;;;;;8.60;4.25;;;;;;;-1.04;77.92;101278.63;5007050;28;20072;-48
2022/11/27 07:25:44;;;;;;;8.35;4.07;;;;;;;-1.04;77.86;101263.28;4998427;28;20585;-52
2022/11/27 07:28:10;;;;;;;11.98;4.32;;;;;;;-0.98;77.30;101266.09;5009047;28;20057;-50
2022/11/27 07:30:36;;;;;;;7.70;4.43;;;;;;;-0.99;77.58;101249.03;5008724;28;20125;-50
2022/11/27 07:33:02;;;;;;;8.25;3.80;;;;;;;-0.91;77.03;101258.72;5011061;28;20583;-51
2022/11/27 07:35:29;;;;;;;7.70;4.15;;;;;;;-1.07;76.89;101243.66;5008411;28;20136;-46
2022/11/27 07:37:55;;;;;;;8.43;4.30;;;;;;;-0.89;76.75;101258.78;5010538;28;20124;-47
2022/11/27 07:40:21;;;;;;;8.10;4.10;;;;;;;-0.91;77.06;101266.38;5014244;28;20053;-49
2022/11/27 07:42:47;;;;;;;10.60;4.90;;;;;;;-0.87;76.73;101265.69;5007939;28;20149;-55
2022/11/27 07:45:16;;;;;;;8.18;4.30;;;;;;;-0.85;76.86;101265.75;5002158;28;20136;-47
2022/11/27 07:47:42;;;;;;;8.20;4.28;;;;;;;-0.86;76.91;101257.22;5002966;28;20081;-51
2022/11/27 07:50:09;;;;;;;9.13;4.65;;;;;;;-0.95;76.89;101228.81;5007211;28;20048;-53
2022/11/27 07:52:36;;;;;;;8.02;3.80;;;;;;;-0.77;76.77;101264.31;4991698;28;20587;-48
2022/11/27 07:55:02;;;;;;;8.63;4.50;;;;;;;-0.72;76.77;101267.03;5006251;28;20520;-51
2022/11/27 07:57:28;;;;;;;11.20;4.28;;;;;;;-0.67;76.31;101268.06;4992638;28;20062;-49
2022/11/27 07:59:54;;;;;;;8.05;4.15;;;;;;;-0.88;76.48;101234.97;4977182;28;20077;-49
2022/11/27 08:02:20;;;;;;;11.02;4.65;;;;;;;-0.67;76.47;101268.06;5010236;28;20126;-48
2022/11/27 08:04:46;;;;;;;9.82;4.15;;;;;;;-0.60;76.38;101270.06;5008972;28;20050;-53
2022/11/27 08:07:11;;;;;;;8.70;4.72;;;;;;;-0.74;76.12;101236.38;5009823;28;20042;-46
2022/11/27 08:09:39;;;;;;;12.80;4.78;;;;;;;-0.60;76.03;101270.06;5015239;28;20048;-48
2022/11/27 08:12:05;;;;;;;7.20;4.15;;;;;;;-0.82;76.16;101239.44;4998106;28;20037;-48
2022/11/27 08:14:31;;;;;;;8.82;4.32;;;;;;;-0.65;76.36;101276.69;5008876;28;20096;-48
2022/11/27 08:16:57;;;;;;;8.43;4.20;;;;;;;-0.69;76.11;101267.16;5005580;28;20049;-49
2022/11/27 08:19:23;;;;;;;6.90;3.95;;;;;;;-0.66;76.41;101268.16;5006275;28;20037;-48
2022/11/27 08:21:49;;;;;;;7.25;4.13;;;;;;;-0.76;76.27;101224.34;5009312;28;20041;-49
2022/11/27 08:24:16;;;;;;;7.50;4.40;;;;;;;-0.47;76.04;101262.00;4991908;28;20049;-53
2022/11/27 08:26:41;;;;;;;8.63;4.50;;;;;;;-0.41;75.96;101252.00;5005442;28;20056;-52
2022/11/27 08:29:10;;;;;;;7.65;4.05;;;;;;;-0.39;76.24;101252.06;4988084;28;20038;-51
2022/11/27 08:31:36;;;;;;;9.30;4.97;;;;;;;-0.35;76.18;101259.00;5008405;28;20042;-47
2022/11/27 08:34:02;;;;;;;7.68;3.35;;;;;;;-0.40;76.35;101253.72;5008368;28;20050;-47
2022/11/27 08:36:27;;;;;;;8.82;4.22;;;;;;;-0.53;76.60;101231.16;4990491;28;20037;-52
2022/11/27 08:38:55;;;;;;;10.00;4.53;;;;;;;-0.27;76.64;101255.03;5006421;28;20184;-49
2022/11/27 08:41:22;;;;;;;8.32;4.13;;;;;;;-0.27;76.59;101261.03;5004895;28;20042;-48
2022/11/27 08:43:49;;;;;;;9.70;4.13;;;;;;;-0.21;76.70;101257.81;5009125;28;20420;-47
2022/11/27 08:46:15;;;;;;;8.57;3.97;;;;;;;-0.20;76.29;101260.41;5008638;28;20535;-50
2022/11/27 08:48:41;;;;;;;14.00;4.97;;;;;;;-0.17;76.59;101262.22;5007569;28;20080;-49
2022/11/27 08:51:09;;;;;;;6.97;4.18;;;;;;;-0.09;76.43;101266.75;5004166;28;20073;-49
2022/11/27 08:53:36;;;;;;;8.98;4.13;;;;;;;-0.01;76.24;101261.91;4986817;28;20046;-51
2022/11/27 08:56:15;;;;;;;8.25;4.07;;;;;;;0.04;76.39;101265.47;5008037;28;20092;-51
2022/11/27 08:58:42;;;;;;;7.65;3.97;;;;;;;-0.06;76.11;101245.53;5008831;28;20050;-51
2022/11/27 09:01:10;;;;;;;7.35;4.13;;;;;;;0.08;75.95;101259.66;5006276;28;20045;-53
2022/11/27 09:03:36;;;;;;;7.72;3.85;;;;;;;0.12;76.14;101269.16;5009798;28;20048;-48
2022/11/27 09:06:06;;;;;;;7.43;3.58;;;;;;;0.15;75.99;101253.94;5012353;28;20042;-49
2022/11/27 09:08:32;;;;;;;;;;;;;;;0.20;75.67;101256.63;5007193;28;20061;-45
2022/11/27 09:11:03;;;;;;;6.57;3.80;;;;;;;0.18;75.17;101256.56;5012345;28;19917;-48
2022/11/27 09:13:29;;;;;;;8.77;3.80;;;;;;;0.05;75.45;101226.31;5015136;28;20046;-46
2022/11/27 09:15:56;;;;;;;7.97;3.80;;;;;;;0.19;75.10;101249.78;4999823;28;20037;-53
2022/11/27 09:18:22;;;;;;;5.18;3.42;;;;;;;0.17;75.09;101257.38;5008870;28;20041;-49
2022/11/27 09:21:00;;;;;;;10.43;4.25;;;;;;;0.19;75.03;101248.09;5010356;28;20041;-49
2022/11/27 09:23:27;;;;;;;6.78;3.80;;;;;;;0.23;75.31;101247.34;5001187;28;20050;-52
2022/11/27 09:25:53;;;;;;;7.13;4.00;;;;;;;0.26;74.98;101239.75;4997752;28;20050;-48
2022/11/27 09:28:19;;;;;;;8.27;3.67;;;;;;;0.28;74.85;101247.50;5008611;28;20045;-51
2022/11/27 09:30:45;;;;;;;5.93;3.50;;;;;;;0.29;75.02;101256.91;5009363;28;20052;-52
2022/11/27 09:33:11;;;;;;;7.78;3.50;;;;;;;0.19;74.93;101221.63;5012236;28;20522;-49
2022/11/27 09:35:37;;;;;;;7.80;3.85;;;;;;;0.42;74.86;101252.22;5009977;28;20056;-48
2022/11/27 09:38:03;;;;;;;7.93;4.03;;;;;;;0.45;74.89;101251.47;4995380;28;20129;-47
2022/11/27 09:40:29;;;;;;;7.10;3.58;;;;;;;0.25;74.82;101214.16;4999193;28;20129;-54
2022/11/27 09:43:00;;;;;;;6.05;3.72;;;;;;;0.43;74.86;101246.28;4991244;28;20472;-46
2022/11/27 09:45:26;;;;;;;8.02;3.70;;;;;;;0.46;74.61;101250.66;4998954;28;20053;-48
2022/11/27 09:48:02;;;;;;;7.97;3.92;;;;;;;0.27;74.90;101215.06;4997049;28;20089;-50
2022/11/27 09:50:31;;;;;;;6.38;3.58;;;;;;;0.43;74.54;101253.09;5009924;28;20578;-48
2022/11/27 09:53:05;;;;;;;7.13;3.53;;;;;;;0.45;74.75;101256.59;5002881;28;20041;-45
2022/11/27 09:55:37;;;;;;;6.72;3.47;;;;;;;0.30;74.30;101231.41;4980028;28;20108;-49
2022/11/27 09:58:13;;;;;;;7.18;3.42;;;;;;;0.45;74.98;101251.47;5007669;28;20030;-49
2022/11/27 10:00:39;;;;;;;6.88;3.63;;;;;;;0.33;74.42;101231.47;4988716;28;20046;-50
2022/11/27 10:03:14;;;;;;;6.20;3.40;;;;;;;0.53;74.82;101252.56;5007343;28;20042;-52
2022/11/27 10:06:03;;;;;;;7.85;3.95;;;;;;;0.47;74.22;101231.06;5003262;28;20694;-61
2022/11/27 10:08:59;;;;;;;7.45;3.90;;;;;;;0.64;74.37;101250.34;5005307;28;20505;-50
2022/11/27 10:11:32;;;;;;;9.63;3.83;;;;;;;0.67;74.01;101258.13;5002905;28;20056;-51
2022/11/27 10:14:26;;;;;;;8.07;3.53;;;;;;;0.69;74.01;101248.78;5002856;28;20478;-49
2022/11/27 10:17:28;;;;;;;7.18;3.67;;;;;;;0.63;74.13;101241.78;5003998;28;20045;-49
2022/11/27 10:20:00;;;;;;;7.20;3.67;;;;;;;0.77;73.82;101260.16;5004259;28;20045;-50
2022/11/27 10:22:45;;;;;;;7.45;4.03;;;;;;;0.79;74.30;101266.16;5000841;28;20066;-51
2022/11/27 10:25:30;;;;;;;6.25;3.97;;;;;;;0.62;73.85;101234.09;4981447;28;20061;-50
2022/11/27 10:28:19;;;;;;;10.15;4.65;;;;;;;0.77;74.08;101267.81;4996031;28;20182;-50
2022/11/27 10:31:19;;;;;;;7.47;3.97;;;;;;;0.78;73.44;101262.75;5000796;28;20088;-51
2022/11/27 10:33:52;;;;;;;8.45;4.25;;;;;;;0.65;73.37;101219.69;4984366;28;20297;-49
2022/11/27 10:36:35;;;;;;;10.15;4.57;;;;;;;0.88;73.40;101255.34;5014925;28;20084;-52
2022/11/27 10:39:02;;;;;;;7.78;4.53;;;;;;;0.86;73.56;101257.84;4990162;28;20050;-53
2022/11/27 10:41:38;;;;;;;7.47;4.47;;;;;;;0.90;73.27;101252.00;5002925;28;20038;-52
2022/11/27 10:44:30;;;;;;;9.13;4.40;;;;;;;0.76;73.02;101220.88;4994782;28;20038;-49
2022/11/27 10:47:01;;;;;;;10.32;4.53;;;;;;;0.97;72.91;101255.59;4976054;28;20108;-48
2022/11/27 10:49:28;;;;;;;13.02;5.82;;;;;;;0.98;72.54;101250.53;4990664;28;20455;-48
2022/11/27 10:51:54;;;;;;;9.15;4.78;;;;;;;1.02;72.89;101252.34;5001346;28;20103;-54
2022/11/27 10:54:27;;;;;;;10.98;5.03;;;;;;;0.95;72.46;101250.44;5004634;28;20053;-51
2022/11/27 10:57:18;;;;;;;9.07;5.45;;;;;;;0.95;72.25;101258.13;4999050;28;20077;-52
2022/11/27 11:00:05;;;;;;;9.00;5.32;;;;;;;0.99;72.58;101254.84;5006072;28;20100;-49
2022/11/27 11:02:33;;;;;;;9.95;5.32;;;;;;;0.95;72.26;101254.69;4995123;28;20041;-48
2022/11/27 11:05:19;;;;;;;8.90;5.38;;;;;;;0.91;72.12;101257.97;4998968;28;20050;-47
2022/11/27 11:08:17;;;;;;;10.85;5.45;;;;;;;0.86;71.90;101255.28;5014723;28;20057;-49
2022/11/27 11:10:56;;;;;;;9.23;5.18;;;;;;;0.88;72.29;101261.34;4992422;28;20046;-49
2022/11/27 11:13:41;;;;;;;9.40;5.20;;;;;;;0.53;72.06;101209.06;5005120;28;20088;-47
2022/11/27 11:16:10;;;;;;;12.95;6.22;;;;;;;0.80;71.85;101263.66;4995973;28;20042;-50
2022/11/27 11:18:43;;;;;;;9.93;5.17;;;;;;;0.77;72.37;101268.69;5000482;28;20058;-51
2022/11/27 11:21:16;;;;;;;10.55;5.50;;;;;;;0.69;72.60;101267.56;5004037;28;20297;-56
2022/11/27 11:23:45;;;;;;;13.57;5.78;;;;;;;0.72;71.97;101266.81;5002405;28;20042;-48
2022/11/27 11:26:22;;;;;;;10.03;5.40;;;;;;;0.67;72.25;101263.25;4987602;28;20046;-49
2022/11/27 11:28:51;;;;;;;13.43;5.93;;;;;;;0.53;72.19;101241.47;5000824;28;20057;-50
2022/11/27 11:31:20;;;;;;;13.27;5.75;;;;;;;0.55;72.49;101247.50;4995518;28;20045;-49
2022/11/27 11:33:58;;;;;;;9.90;5.18;;;;;;;0.63;72.85;101264.81;4999700;28;20042;-52
2022/11/27 11:36:24;;;;;;;7.72;4.65;;;;;;;0.62;72.48;101265.66;5015169;28;20517;-48
2022/11/27 11:38:51;;;;;;;10.38;5.38;;;;;;;0.45;72.66;101243.78;5000079;28;20472;-49